Lewiston, ID (83501)

1:33 AM PST on February 08, 2016 (GMT -0800)
Orchards | | Change Station
CLOSE
Current Station
Personal Weather Station
Location: Lewiston, ID
Elevation: 1365 ft
Nearby Weather Stations

Elev 1365 ft 46.39 °N, 116.99 °W | Updated 5 minutes ago

Clear
Clear
34.3 °F
Feels Like 34 °F
N
2.2
Wind Variable Wind from ESE

Today
High -- | Low -- °F
--% Chance of Precip.
Yesterday
High -- | Low -- °F
Precip. -- in
Pressure 30.66 in
Visibility 10.0 miles
Clouds Clear
Windchill 34 °F
Dew Point 32 °F
Humidity 90%
Rainfall 0.00 in
Snow Depth Not available.
7:02 AM 5:02 PM
Waning Crescent, 0% visible
METAR KLWS 080856Z AUTO 00000KT 10SM CLR 02/M01 A3062 RMK AO2 SLP380 T00221011 58004
Pressure 30.66 in
Visibility 10.0 miles
Clouds Clear
Windchill 34 °F
Dew Point 32 °F
Humidity 90%
Rainfall 0.00 in
Snow Depth Not available.
7:02 AM 5:02 PM
Waning Crescent, 0% visible
METAR KLWS 080856Z AUTO 00000KT 10SM CLR 02/M01 A3062 RMK AO2 SLP380 T00221011 58004

10-Day Weather Forecast

Almanac

Astronomy

Feb. 08, 2016 Rise Set
Actual Time
Civil Twilight
Nautical Twilight
Astronomical Twilight
Moon
Length of Visible Light
Length of Day
Tomorrow will be .
, % of the Moon is Illuminated

Today's Extremes

State Highs State Lows

Community

WunderPhotos

Upload Photos

1,891,412 photos uploaded!

WunderBlog® & News

Nearby

Air Quality

  Air Quality AQ Index Pollutant
Not available.

Snow Depth

Station Depth Elevation

Earthquake Activity

City Distance Mag. Time & Date
Minimum magnitude displayed is 2.5.

Coastal Water Temperatures

Place Temperature

Stations

Nearby Weather Stations

Station Location Temp. Windchill Dew Point Humidity Wind Precip. Elev Updated Type
                   

Watches & Warnings

There are currently no watches in effect.